sensor_id;sensor_type;location;lat;lon;timestamp;pressure;altitude;pressure_sealevel;temperature;humidity
44148;BME280;29810;55.848;37.368;2022-07-06T00:02:14;99085.91;;;19.17;87.60
44148;BME280;29810;55.848;37.368;2022-07-06T00:05:16;99071.22;;;19.13;87.42
44148;BME280;29810;55.848;37.368;2022-07-06T00:08:17;99070.25;;;19.14;87.34
44148;BME280;29810;55.848;37.368;2022-07-06T00:11:19;99071.00;;;19.16;87.29
44148;BME280;29810;55.848;37.368;2022-07-06T00:14:20;99082.31;;;19.18;87.23
44148;BME280;29810;55.848;37.368;2022-07-06T00:17:22;99072.19;;;19.12;87.06
44148;BME280;29810;55.848;37.368;2022-07-06T00:20:23;99070.25;;;19.14;87.01
44148;BME280;29810;55.848;37.368;2022-07-06T00:23:25;99065.72;;;19.16;86.91
44148;BME280;29810;55.848;37.368;2022-07-06T00:26:27;99060.19;;;19.19;86.82
44148;BME280;29810;55.848;37.368;2022-07-06T00:29:28;99051.44;;;19.19;86.55
44148;BME280;29810;55.848;37.368;2022-07-06T00:32:31;99045.31;;;19.18;86.38
44148;BME280;29810;55.848;37.368;2022-07-06T00:35:33;99039.16;;;19.18;86.36
44148;BME280;29810;55.848;37.368;2022-07-06T00:38:35;99047.47;;;19.25;86.13
44148;BME280;29810;55.848;37.368;2022-07-06T00:41:38;99045.69;;;19.25;86.01
44148;BME280;29810;55.848;37.368;2022-07-06T00:44:40;99041.34;;;19.24;85.86
44148;BME280;29810;55.848;37.368;2022-07-06T00:47:42;99045.78;;;19.24;85.82
44148;BME280;29810;55.848;37.368;2022-07-06T00:50:44;99050.09;;;19.25;85.78
44148;BME280;29810;55.848;37.368;2022-07-06T00:53:46;99050.72;;;19.28;85.69
44148;BME280;29810;55.848;37.368;2022-07-06T00:56:48;99057.13;;;19.37;85.40
44148;BME280;29810;55.848;37.368;2022-07-06T00:59:49;99057.97;;;19.37;85.39
44148;BME280;29810;55.848;37.368;2022-07-06T01:02:51;99049.19;;;19.37;85.35
44148;BME280;29810;55.848;37.368;2022-07-06T01:05:53;99052.91;;;19.34;85.53
44148;BME280;29810;55.848;37.368;2022-07-06T01:08:55;99062.53;;;19.35;85.86
44148;BME280;29810;55.848;37.368;2022-07-06T01:11:57;99047.63;;;19.46;85.49
44148;BME280;29810;55.848;37.368;2022-07-06T01:14:58;99055.97;;;19.75;84.64
44148;BME280;29810;55.848;37.368;2022-07-06T01:18:00;99060.56;;;20.18;82.96
44148;BME280;29810;55.848;37.368;2022-07-06T01:21:10;99053.31;;;20.43;81.54
44148;BME280;29810;55.848;37.368;2022-07-06T01:24:12;99058.94;;;20.73;80.03
44148;BME280;29810;55.848;37.368;2022-07-06T01:27:14;99040.41;;;20.50;80.00
44148;BME280;29810;55.848;37.368;2022-07-06T01:30:18;99054.66;;;20.38;80.16
44148;BME280;29810;55.848;37.368;2022-07-06T01:33:19;99062.50;;;20.16;81.08
44148;BME280;29810;55.848;37.368;2022-07-06T01:36:21;99058.31;;;20.02;81.80
44148;BME280;29810;55.848;37.368;2022-07-06T01:39:24;99062.28;;;19.97;82.16
44148;BME280;29810;55.848;37.368;2022-07-06T01:42:27;99062.50;;;19.94;82.20
44148;BME280;29810;55.848;37.368;2022-07-06T01:45:31;99064.94;;;19.97;82.30
44148;BME280;29810;55.848;37.368;2022-07-06T01:48:33;99077.41;;;19.95;82.67
44148;BME280;29810;55.848;37.368;2022-07-06T01:51:37;99076.44;;;20.07;82.27
44148;BME280;29810;55.848;37.368;2022-07-06T01:54:39;99077.41;;;20.29;81.50
44148;BME280;29810;55.848;37.368;2022-07-06T01:57:41;99063.19;;;20.41;80.77
44148;BME280;29810;55.848;37.368;2022-07-06T02:00:44;99072.34;;;20.37;80.43
44148;BME280;29810;55.848;37.368;2022-07-06T02:03:46;99077.88;;;20.23;80.81
44148;BME280;29810;55.848;37.368;2022-07-06T02:06:49;99067.91;;;20.15;81.11
44148;BME280;29810;55.848;37.368;2022-07-06T02:09:50;99072.25;;;20.16;81.19
44148;BME280;29810;55.848;37.368;2022-07-06T02:12:52;99061.91;;;20.13;81.08
44148;BME280;29810;55.848;37.368;2022-07-06T02:15:54;99034.00;;;19.97;80.96
44148;BME280;29810;55.848;37.368;2022-07-06T02:18:56;99058.66;;;20.09;80.67
44148;BME280;29810;55.848;37.368;2022-07-06T02:21:58;99075.75;;;20.16;80.73
44148;BME280;29810;55.848;37.368;2022-07-06T02:24:59;99077.41;;;20.17;80.52
44148;BME280;29810;55.848;37.368;2022-07-06T02:28:01;99075.00;;;20.26;80.18
44148;BME280;29810;55.848;37.368;2022-07-06T02:31:03;99068.78;;;20.82;78.66
44148;BME280;29810;55.848;37.368;2022-07-06T02:34:06;99070.97;;;23.14;70.41
44148;BME280;29810;55.848;37.368;2022-07-06T02:37:08;99054.72;;;25.40;61.98
44148;BME280;29810;55.848;37.368;2022-07-06T02:40:10;99052.69;;;26.89;56.35
44148;BME280;29810;55.848;37.368;2022-07-06T02:43:12;99058.97;;;28.03;52.29
44148;BME280;29810;55.848;37.368;2022-07-06T02:46:14;99040.78;;;28.85;49.29
44148;BME280;29810;55.848;37.368;2022-07-06T02:49:16;99037.75;;;29.64;46.87
44148;BME280;29810;55.848;37.368;2022-07-06T02:52:19;99038.25;;;30.34;44.86
44148;BME280;29810;55.848;37.368;2022-07-06T02:55:20;99034.09;;;30.90;43.27
44148;BME280;29810;55.848;37.368;2022-07-06T02:58:24;99008.72;;;31.21;42.04
44148;BME280;29810;55.848;37.368;2022-07-06T03:01:26;99026.91;;;31.76;40.78
44148;BME280;29810;55.848;37.368;2022-07-06T03:04:28;99019.78;;;32.10;39.61
44148;BME280;29810;55.848;37.368;2022-07-06T03:07:29;99008.16;;;32.64;38.54
44148;BME280;29810;55.848;37.368;2022-07-06T03:10:31;99003.22;;;33.15;37.43
44148;BME280;29810;55.848;37.368;2022-07-06T03:13:33;98996.72;;;33.70;36.34
44148;BME280;29810;55.848;37.368;2022-07-06T03:16:34;98988.72;;;34.01;35.50
44148;BME280;29810;55.848;37.368;2022-07-06T03:19:37;98999.31;;;34.10;34.87
44148;BME280;29810;55.848;37.368;2022-07-06T03:22:39;99006.78;;;34.53;34.08
44148;BME280;29810;55.848;37.368;2022-07-06T03:25:40;98999.28;;;34.87;33.52
44148;BME280;29810;55.848;37.368;2022-07-06T03:28:42;99001.81;;;35.07;32.96
44148;BME280;29810;55.848;37.368;2022-07-06T03:31:43;99013.06;;;35.29;32.53
44148;BME280;29810;55.848;37.368;2022-07-06T03:34:45;99010.06;;;35.44;31.90
44148;BME280;29810;55.848;37.368;2022-07-06T03:37:49;99016.91;;;35.65;31.63
44148;BME280;29810;55.848;37.368;2022-07-06T03:40:52;99008.75;;;35.47;32.01
44148;BME280;29810;55.848;37.368;2022-07-06T03:43:54;99020.50;;;35.41;31.81
44148;BME280;29810;55.848;37.368;2022-07-06T03:46:57;99016.25;;;35.89;30.98
44148;BME280;29810;55.848;37.368;2022-07-06T03:49:59;99022.16;;;36.16;30.52
44148;BME280;29810;55.848;37.368;2022-07-06T03:53:00;99005.19;;;36.39;29.85
44148;BME280;29810;55.848;37.368;2022-07-06T03:56:02;99017.03;;;36.87;29.50
44148;BME280;29810;55.848;37.368;2022-07-06T03:59:23;99017.34;;;37.33;28.42
44148;BME280;29810;55.848;37.368;2022-07-06T04:02:24;98998.31;;;37.98;27.33
44148;BME280;29810;55.848;37.368;2022-07-06T04:05:26;99011.19;;;38.43;26.82
44148;BME280;29810;55.848;37.368;2022-07-06T04:08:28;99019.34;;;38.14;27.21
44148;BME280;29810;55.848;37.368;2022-07-06T04:11:31;99012.25;;;37.49;27.83
44148;BME280;29810;55.848;37.368;2022-07-06T04:14:32;99020.38;;;37.13;28.45
44148;BME280;29810;55.848;37.368;2022-07-06T04:17:34;99010.13;;;36.73;28.82
44148;BME280;29810;55.848;37.368;2022-07-06T04:20:53;99009.63;;;37.30;28.33
44148;BME280;29810;55.848;37.368;2022-07-06T04:23:55;99012.16;;;38.37;26.95
44148;BME280;29810;55.848;37.368;2022-07-06T04:26:57;99006.69;;;39.17;26.01
44148;BME280;29810;55.848;37.368;2022-07-06T04:29:59;99000.75;;;39.76;25.16
44148;BME280;29810;55.848;37.368;2022-07-06T04:33:01;99000.47;;;39.55;25.22
44148;BME280;29810;55.848;37.368;2022-07-06T04:36:03;99002.66;;;39.02;26.09
44148;BME280;29810;55.848;37.368;2022-07-06T04:39:06;99005.47;;;39.24;25.86
44148;BME280;29810;55.848;37.368;2022-07-06T04:42:09;98983.81;;;39.74;25.10
44148;BME280;29810;55.848;37.368;2022-07-06T04:45:10;99002.13;;;40.01;24.59
44148;BME280;29810;55.848;37.368;2022-07-06T04:48:12;99014.69;;;40.02;24.68
44148;BME280;29810;55.848;37.368;2022-07-06T04:51:14;99003.72;;;40.19;24.38
44148;BME280;29810;55.848;37.368;2022-07-06T04:54:15;99001.72;;;40.64;23.91
44148;BME280;29810;55.848;37.368;2022-07-06T04:57:17;99000.47;;;41.09;23.47
44148;BME280;29810;55.848;37.368;2022-07-06T05:00:18;99000.19;;;41.53;22.83
44148;BME280;29810;55.848;37.368;2022-07-06T05:03:21;98998.88;;;41.66;22.50
44148;BME280;29810;55.848;37.368;2022-07-06T05:06:23;99000.97;;;42.07;22.04
44148;BME280;29810;55.848;37.368;2022-07-06T05:09:25;98997.41;;;42.07;22.08
44148;BME280;29810;55.848;37.368;2022-07-06T05:12:27;98995.06;;;42.41;21.62
44148;BME280;29810;55.848;37.368;2022-07-06T05:15:29;98996.13;;;42.66;21.21
44148;BME280;29810;55.848;37.368;2022-07-06T05:18:32;98989.03;;;43.01;20.68
44148;BME280;29810;55.848;37.368;2022-07-06T05:21:33;98984.06;;;43.34;20.27
44148;BME280;29810;55.848;37.368;2022-07-06T05:24:36;98991.12;;;43.56;20.07
44148;BME280;29810;55.848;37.368;2022-07-06T05:27:37;98980.19;;;43.50;19.81
44148;BME280;29810;55.848;37.368;2022-07-06T05:30:40;98988.41;;;43.45;19.61
44148;BME280;29810;55.848;37.368;2022-07-06T05:33:43;98990.16;;;42.74;19.94
44148;BME280;29810;55.848;37.368;2022-07-06T05:36:45;98993.41;;;43.17;19.85
44148;BME280;29810;55.848;37.368;2022-07-06T05:39:46;98983.41;;;43.68;19.31
44148;BME280;29810;55.848;37.368;2022-07-06T05:42:50;98995.13;;;43.94;18.80
44148;BME280;29810;55.848;37.368;2022-07-06T05:45:53;98993.19;;;43.95;18.45
44148;BME280;29810;55.848;37.368;2022-07-06T05:48:56;98990.50;;;43.74;18.84
44148;BME280;29810;55.848;37.368;2022-07-06T05:52:16;98986.41;;;44.27;18.51
44148;BME280;29810;55.848;37.368;2022-07-06T05:55:17;98993.81;;;44.26;18.08
44148;BME280;29810;55.848;37.368;2022-07-06T05:58:19;98991.53;;;43.94;18.72
44148;BME280;29810;55.848;37.368;2022-07-06T06:01:21;98993.56;;;44.17;18.74
44148;BME280;29810;55.848;37.368;2022-07-06T06:04:24;98983.78;;;43.30;19.34
44148;BME280;29810;55.848;37.368;2022-07-06T06:07:25;98996.16;;;43.12;19.69
44148;BME280;29810;55.848;37.368;2022-07-06T06:10:27;99000.56;;;43.08;19.88
44148;BME280;29810;55.848;37.368;2022-07-06T06:13:29;98994.50;;;42.91;20.07
44148;BME280;29810;55.848;37.368;2022-07-06T06:16:31;98996.16;;;42.81;20.30
44148;BME280;29810;55.848;37.368;2022-07-06T06:19:32;98987.09;;;42.65;20.79
44148;BME280;29810;55.848;37.368;2022-07-06T06:22:54;98992.16;;;41.90;21.96
44148;BME280;29810;55.848;37.368;2022-07-06T06:25:56;98987.03;;;41.45;23.38
44148;BME280;29810;55.848;37.368;2022-07-06T06:28:58;98995.28;;;40.20;24.59
44148;BME280;29810;55.848;37.368;2022-07-06T06:31:59;98991.44;;;39.16;26.06
44148;BME280;29810;55.848;37.368;2022-07-06T06:35:01;98989.44;;;39.28;26.07
44148;BME280;29810;55.848;37.368;2022-07-06T06:38:04;98979.87;;;39.25;25.95
44148;BME280;29810;55.848;37.368;2022-07-06T06:41:06;98990.62;;;38.98;25.97
44148;BME280;29810;55.848;37.368;2022-07-06T06:44:07;98977.47;;;38.15;27.16
44148;BME280;29810;55.848;37.368;2022-07-06T06:47:09;98991.31;;;36.59;29.53
44148;BME280;29810;55.848;37.368;2022-07-06T06:50:11;98998.38;;;35.44;31.49
44148;BME280;29810;55.848;37.368;2022-07-06T06:53:13;98998.38;;;34.29;33.37
44148;BME280;29810;55.848;37.368;2022-07-06T06:56:14;99001.16;;;33.17;34.84
44148;BME280;29810;55.848;37.368;2022-07-06T06:59:16;99006.31;;;32.58;36.25
44148;BME280;29810;55.848;37.368;2022-07-06T07:02:17;99010.97;;;32.29;37.19
44148;BME280;29810;55.848;37.368;2022-07-06T07:05:19;99008.41;;;32.14;37.30
44148;BME280;29810;55.848;37.368;2022-07-06T07:08:20;99011.66;;;31.96;37.59
44148;BME280;29810;55.848;37.368;2022-07-06T07:11:22;99011.13;;;31.73;38.31
44148;BME280;29810;55.848;37.368;2022-07-06T07:14:23;99011.81;;;31.53;38.86
44148;BME280;29810;55.848;37.368;2022-07-06T07:17:25;99012.94;;;31.30;39.47
44148;BME280;29810;55.848;37.368;2022-07-06T07:20:27;99006.47;;;31.03;40.17
44148;BME280;29810;55.848;37.368;2022-07-06T07:23:31;99007.28;;;31.03;40.63
44148;BME280;29810;55.848;37.368;2022-07-06T07:26:32;99006.66;;;31.23;40.39
44148;BME280;29810;55.848;37.368;2022-07-06T07:29:34;99009.09;;;31.18;40.47
44148;BME280;29810;55.848;37.368;2022-07-06T07:32:35;99014.62;;;31.10;40.39
44148;BME280;29810;55.848;37.368;2022-07-06T07:35:37;99001.94;;;30.82;40.61
44148;BME280;29810;55.848;37.368;2022-07-06T07:38:39;99001.03;;;30.75;40.66
44148;BME280;29810;55.848;37.368;2022-07-06T07:41:40;98996.78;;;30.44;40.53
44148;BME280;29810;55.848;37.368;2022-07-06T07:44:41;99007.09;;;30.40;41.00
44148;BME280;29810;55.848;37.368;2022-07-06T07:47:43;99006.25;;;30.39;40.50
44148;BME280;29810;55.848;37.368;2022-07-06T07:50:45;99011.34;;;30.13;40.49
44148;BME280;29810;55.848;37.368;2022-07-06T07:53:46;99010.31;;;29.69;41.27
44148;BME280;29810;55.848;37.368;2022-07-06T07:56:48;99013.59;;;29.94;41.22
44148;BME280;29810;55.848;37.368;2022-07-06T07:59:50;99013.50;;;30.24;40.87
44148;BME280;29810;55.848;37.368;2022-07-06T08:02:51;99008.59;;;30.28;41.44
44148;BME280;29810;55.848;37.368;2022-07-06T08:05:53;99009.84;;;29.65;41.55
44148;BME280;29810;55.848;37.368;2022-07-06T08:08:54;99004.63;;;29.34;42.61
44148;BME280;29810;55.848;37.368;2022-07-06T08:11:56;99008.56;;;29.46;42.65
44148;BME280;29810;55.848;37.368;2022-07-06T08:14:57;98993.38;;;29.68;42.13
44148;BME280;29810;55.848;37.368;2022-07-06T08:18:00;98992.34;;;29.99;41.72
44148;BME280;29810;55.848;37.368;2022-07-06T08:21:02;98996.81;;;29.77;42.30
44148;BME280;29810;55.848;37.368;2022-07-06T08:24:04;99000.94;;;29.80;42.36
44148;BME280;29810;55.848;37.368;2022-07-06T08:27:06;99001.47;;;30.20;41.67
44148;BME280;29810;55.848;37.368;2022-07-06T08:30:08;98995.94;;;30.43;41.21
44148;BME280;29810;55.848;37.368;2022-07-06T08:33:10;99002.75;;;30.24;40.92
44148;BME280;29810;55.848;37.368;2022-07-06T08:36:12;98994.81;;;30.16;41.21
44148;BME280;29810;55.848;37.368;2022-07-06T08:39:13;98993.22;;;30.58;40.70
44148;BME280;29810;55.848;37.368;2022-07-06T08:42:16;98992.12;;;30.96;39.69
44148;BME280;29810;55.848;37.368;2022-07-06T08:45:18;98991.38;;;30.80;40.01
44148;BME280;29810;55.848;37.368;2022-07-06T08:48:22;98982.91;;;30.62;40.70
44148;BME280;29810;55.848;37.368;2022-07-06T08:51:24;99000.19;;;30.16;41.30
44148;BME280;29810;55.848;37.368;2022-07-06T08:54:26;98976.59;;;30.48;40.52
44148;BME280;29810;55.848;37.368;2022-07-06T08:57:28;98967.06;;;30.95;39.93
44148;BME280;29810;55.848;37.368;2022-07-06T09:00:32;98983.06;;;31.25;38.94
44148;BME280;29810;55.848;37.368;2022-07-06T09:03:33;98986.63;;;31.32;38.91
44148;BME280;29810;55.848;37.368;2022-07-06T09:06:36;98978.50;;;31.26;38.95
44148;BME280;29810;55.848;37.368;2022-07-06T09:09:37;98965.69;;;31.28;38.71
44148;BME280;29810;55.848;37.368;2022-07-06T09:12:41;98978.13;;;31.29;38.48
44148;BME280;29810;55.848;37.368;2022-07-06T09:15:43;98969.09;;;31.43;38.43
44148;BME280;29810;55.848;37.368;2022-07-06T09:18:46;98951.34;;;31.55;37.70
44148;BME280;29810;55.848;37.368;2022-07-06T09:21:48;98968.25;;;31.78;37.67
44148;BME280;29810;55.848;37.368;2022-07-06T09:24:50;98966.16;;;31.38;38.19
44148;BME280;29810;55.848;37.368;2022-07-06T09:27:51;98968.25;;;31.43;38.39
44148;BME280;29810;55.848;37.368;2022-07-06T09:30:55;98963.34;;;31.53;37.89
44148;BME280;29810;55.848;37.368;2022-07-06T09:34:08;98968.59;;;31.26;37.74
44148;BME280;29810;55.848;37.368;2022-07-06T09:37:13;98961.94;;;31.00;38.33
44148;BME280;29810;55.848;37.368;2022-07-06T09:40:18;98962.13;;;30.70;39.03
44148;BME280;29810;55.848;37.368;2022-07-06T09:43:20;98967.28;;;30.72;39.16
44148;BME280;29810;55.848;37.368;2022-07-06T09:46:23;98967.62;;;30.62;39.32
44148;BME280;29810;55.848;37.368;2022-07-06T09:49:26;98946.44;;;30.52;39.39
44148;BME280;29810;55.848;37.368;2022-07-06T09:52:28;98958.66;;;30.77;38.76
44148;BME280;29810;55.848;37.368;2022-07-06T09:55:29;98959.38;;;31.14;37.83
44148;BME280;29810;55.848;37.368;2022-07-06T09:58:31;98955.41;;;30.88;38.55
44148;BME280;29810;55.848;37.368;2022-07-06T10:01:32;98952.19;;;30.99;38.73
44148;BME280;29810;55.848;37.368;2022-07-06T10:04:35;98955.56;;;31.36;37.93
44148;BME280;29810;55.848;37.368;2022-07-06T10:07:37;98947.94;;;31.40;38.12
44148;BME280;29810;55.848;37.368;2022-07-06T10:10:40;98943.47;;;31.19;38.58
44148;BME280;29810;55.848;37.368;2022-07-06T10:13:42;98944.94;;;30.71;38.66
44148;BME280;29810;55.848;37.368;2022-07-06T10:16:46;98949.19;;;30.22;39.93
44148;BME280;29810;55.848;37.368;2022-07-06T10:19:49;98944.00;;;30.58;39.55
44148;BME280;29810;55.848;37.368;2022-07-06T10:22:51;98931.59;;;31.07;39.21
44148;BME280;29810;55.848;37.368;2022-07-06T10:25:55;98935.03;;;31.00;38.80
44148;BME280;29810;55.848;37.368;2022-07-06T10:28:59;98944.00;;;30.58;39.24
44148;BME280;29810;55.848;37.368;2022-07-06T10:32:05;98942.94;;;30.80;38.81
44148;BME280;29810;55.848;37.368;2022-07-06T10:35:09;98938.06;;;30.91;37.86
44148;BME280;29810;55.848;37.368;2022-07-06T10:38:11;98928.09;;;31.13;37.31
44148;BME280;29810;55.848;37.368;2022-07-06T10:41:13;98927.37;;;30.76;37.61
44148;BME280;29810;55.848;37.368;2022-07-06T10:44:19;98926.75;;;30.30;38.27
44148;BME280;29810;55.848;37.368;2022-07-06T10:47:27;98925.00;;;29.86;39.42
44148;BME280;29810;55.848;37.368;2022-07-06T10:50:34;98919.63;;;29.86;39.65
44148;BME280;29810;55.848;37.368;2022-07-06T10:53:38;98923.28;;;29.63;39.10
44148;BME280;29810;55.848;37.368;2022-07-06T10:56:49;98925.06;;;29.41;39.11
44148;BME280;29810;55.848;37.368;2022-07-06T11:00:01;98920.31;;;29.43;39.11
44148;BME280;29810;55.848;37.368;2022-07-06T11:06:48;98912.13;;;29.96;39.06
44148;BME280;29810;55.848;37.368;2022-07-06T11:09:57;98882.00;;;29.86;39.43
44148;BME280;29810;55.848;37.368;2022-07-06T11:13:00;98908.72;;;29.87;39.48
44148;BME280;29810;55.848;37.368;2022-07-06T11:16:04;98900.34;;;29.82;39.61
44148;BME280;29810;55.848;37.368;2022-07-06T11:19:09;98899.00;;;30.08;39.21
44148;BME280;29810;55.848;37.368;2022-07-06T11:22:10;98898.47;;;30.13;39.19
44148;BME280;29810;55.848;37.368;2022-07-06T11:25:12;98898.06;;;29.79;39.79
44148;BME280;29810;55.848;37.368;2022-07-06T11:28:15;98895.37;;;29.79;39.54
44148;BME280;29810;55.848;37.368;2022-07-06T11:31:17;98893.31;;;29.96;39.18
44148;BME280;29810;55.848;37.368;2022-07-06T11:34:22;98885.50;;;30.01;39.21
44148;BME280;29810;55.848;37.368;2022-07-06T11:37:23;98886.44;;;30.09;39.34
44148;BME280;29810;55.848;37.368;2022-07-06T11:40:26;98876.50;;;30.09;39.35
44148;BME280;29810;55.848;37.368;2022-07-06T11:43:28;98883.00;;;30.21;39.08
44148;BME280;29810;55.848;37.368;2022-07-06T11:46:31;98879.97;;;30.25;38.82
44148;BME280;29810;55.848;37.368;2022-07-06T11:49:34;98878.75;;;30.27;38.73
44148;BME280;29810;55.848;37.368;2022-07-06T11:52:36;98865.16;;;30.35;38.13
44148;BME280;29810;55.848;37.368;2022-07-06T11:55:38;98866.00;;;30.36;37.46
44148;BME280;29810;55.848;37.368;2022-07-06T11:58:39;98873.16;;;30.07;38.23
44148;BME280;29810;55.848;37.368;2022-07-06T12:01:42;98864.91;;;29.87;38.01
44148;BME280;29810;55.848;37.368;2022-07-06T12:04:46;98874.00;;;30.08;37.46
44148;BME280;29810;55.848;37.368;2022-07-06T12:07:47;98872.78;;;30.53;37.10
44148;BME280;29810;55.848;37.368;2022-07-06T12:10:49;98873.19;;;30.79;36.81
44148;BME280;29810;55.848;37.368;2022-07-06T12:13:52;98877.22;;;30.89;36.83
44148;BME280;29810;55.848;37.368;2022-07-06T12:16:54;98874.94;;;30.93;36.76
44148;BME280;29810;55.848;37.368;2022-07-06T12:19:55;98865.34;;;31.05;35.66
44148;BME280;29810;55.848;37.368;2022-07-06T12:23:06;98858.09;;;31.13;35.14
44148;BME280;29810;55.848;37.368;2022-07-06T12:26:10;98864.72;;;31.10;34.75
44148;BME280;29810;55.848;37.368;2022-07-06T12:29:13;98861.62;;;31.07;34.92
44148;BME280;29810;55.848;37.368;2022-07-06T12:32:21;98856.31;;;31.20;34.94
44148;BME280;29810;55.848;37.368;2022-07-06T12:35:28;98862.25;;;31.57;34.05
44148;BME280;29810;55.848;37.368;2022-07-06T12:38:29;98847.25;;;31.83;33.78
44148;BME280;29810;55.848;37.368;2022-07-06T12:41:33;98840.41;;;32.00;33.48
44148;BME280;29810;55.848;37.368;2022-07-06T12:44:42;98848.69;;;31.79;33.92
44148;BME280;29810;55.848;37.368;2022-07-06T12:48:01;98846.47;;;31.47;34.61
44148;BME280;29810;55.848;37.368;2022-07-06T12:51:03;98845.16;;;31.36;35.54
44148;BME280;29810;55.848;37.368;2022-07-06T12:54:11;98848.91;;;31.00;36.49
44148;BME280;29810;55.848;37.368;2022-07-06T12:57:18;98851.31;;;30.88;36.77
44148;BME280;29810;55.848;37.368;2022-07-06T13:00:20;98855.16;;;30.72;36.97
44148;BME280;29810;55.848;37.368;2022-07-06T13:03:23;98858.22;;;30.98;36.72
44148;BME280;29810;55.848;37.368;2022-07-06T13:06:33;98849.75;;;31.43;35.93
44148;BME280;29810;55.848;37.368;2022-07-06T13:09:34;98853.84;;;31.67;35.54
44148;BME280;29810;55.848;37.368;2022-07-06T13:12:37;98861.94;;;31.74;35.03
44148;BME280;29810;55.848;37.368;2022-07-06T13:15:41;98848.69;;;31.79;35.10
44148;BME280;29810;55.848;37.368;2022-07-06T13:18:43;98844.53;;;31.83;35.34
44148;BME280;29810;55.848;37.368;2022-07-06T13:21:44;98842.37;;;31.58;35.58
44148;BME280;29810;55.848;37.368;2022-07-06T13:24:46;98834.59;;;31.28;36.12
44148;BME280;29810;55.848;37.368;2022-07-06T13:27:47;98831.81;;;30.80;37.07
44148;BME280;29810;55.848;37.368;2022-07-06T13:30:49;98831.22;;;30.84;36.73
44148;BME280;29810;55.848;37.368;2022-07-06T13:33:51;98831.84;;;30.86;37.09
44148;BME280;29810;55.848;37.368;2022-07-06T13:36:52;98833.41;;;30.67;37.27
44148;BME280;29810;55.848;37.368;2022-07-06T13:39:54;98837.50;;;30.42;37.50
44148;BME280;29810;55.848;37.368;2022-07-06T13:42:56;98832.03;;;30.28;37.57
44148;BME280;29810;55.848;37.368;2022-07-06T13:45:57;98838.53;;;30.19;37.93
44148;BME280;29810;55.848;37.368;2022-07-06T13:48:58;98834.16;;;30.39;37.14
44148;BME280;29810;55.848;37.368;2022-07-06T13:52:00;98834.28;;;30.81;36.68
44148;BME280;29810;55.848;37.368;2022-07-06T13:55:05;98841.91;;;30.78;36.53
44148;BME280;29810;55.848;37.368;2022-07-06T13:58:08;98823.78;;;30.86;36.17
44148;BME280;29810;55.848;37.368;2022-07-06T14:01:09;98826.44;;;31.08;35.99
44148;BME280;29810;55.848;37.368;2022-07-06T14:04:11;98813.25;;;31.27;36.04
44148;BME280;29810;55.848;37.368;2022-07-06T14:07:13;98821.59;;;31.03;36.34
44148;BME280;29810;55.848;37.368;2022-07-06T14:10:15;98821.22;;;30.71;36.11
44148;BME280;29810;55.848;37.368;2022-07-06T14:13:16;98826.41;;;30.23;36.55
44148;BME280;29810;55.848;37.368;2022-07-06T14:16:18;98819.59;;;29.84;37.10
44148;BME280;29810;55.848;37.368;2022-07-06T14:19:19;98804.72;;;29.45;37.22
44148;BME280;29810;55.848;37.368;2022-07-06T14:22:23;98815.62;;;29.43;37.39
44148;BME280;29810;55.848;37.368;2022-07-06T14:25:24;98810.44;;;29.41;37.07
44148;BME280;29810;55.848;37.368;2022-07-06T14:28:26;98812.28;;;29.26;36.99
44148;BME280;29810;55.848;37.368;2022-07-06T14:31:28;98815.19;;;29.39;36.66
44148;BME280;29810;55.848;37.368;2022-07-06T14:34:30;98811.56;;;29.32;36.56
44148;BME280;29810;55.848;37.368;2022-07-06T14:37:31;98802.31;;;29.20;37.13
44148;BME280;29810;55.848;37.368;2022-07-06T14:40:34;98813.63;;;29.30;36.73
44148;BME280;29810;55.848;37.368;2022-07-06T14:43:36;98808.62;;;29.27;36.63
44148;BME280;29810;55.848;37.368;2022-07-06T14:46:38;98807.88;;;29.33;36.72
44148;BME280;29810;55.848;37.368;2022-07-06T14:49:40;98806.44;;;29.52;36.71
44148;BME280;29810;55.848;37.368;2022-07-06T14:52:42;98793.78;;;29.68;36.51
44148;BME280;29810;55.848;37.368;2022-07-06T14:55:43;98803.22;;;30.00;35.99
44148;BME280;29810;55.848;37.368;2022-07-06T14:58:45;98798.97;;;30.34;35.57
44148;BME280;29810;55.848;37.368;2022-07-06T15:01:46;98795.53;;;30.69;35.09
44148;BME280;29810;55.848;37.368;2022-07-06T15:04:48;98797.53;;;30.95;35.57
44148;BME280;29810;55.848;37.368;2022-07-06T15:07:49;98792.94;;;31.24;35.46
44148;BME280;29810;55.848;37.368;2022-07-06T15:10:51;98789.22;;;31.18;38.85
44148;BME280;29810;55.848;37.368;2022-07-06T15:13:52;98783.81;;;31.18;40.04
44148;BME280;29810;55.848;37.368;2022-07-06T15:16:54;98794.25;;;31.00;40.83
44148;BME280;29810;55.848;37.368;2022-07-06T15:19:56;98794.44;;;30.98;40.75
44148;BME280;29810;55.848;37.368;2022-07-06T15:22:58;98783.97;;;30.75;40.82
44148;BME280;29810;55.848;37.368;2022-07-06T15:26:02;98778.12;;;30.65;40.50
44148;BME280;29810;55.848;37.368;2022-07-06T15:29:04;98783.84;;;30.55;40.42
44148;BME280;29810;55.848;37.368;2022-07-06T15:32:06;98775.81;;;30.33;40.37
44148;BME280;29810;55.848;37.368;2022-07-06T15:35:08;98770.72;;;30.17;40.46
44148;BME280;29810;55.848;37.368;2022-07-06T15:38:09;98768.94;;;30.02;41.24
44148;BME280;29810;55.848;37.368;2022-07-06T15:41:11;98754.06;;;29.85;41.72
44148;BME280;29810;55.848;37.368;2022-07-06T15:44:12;98768.72;;;29.82;42.35
44148;BME280;29810;55.848;37.368;2022-07-06T15:47:14;98769.72;;;29.74;42.55
44148;BME280;29810;55.848;37.368;2022-07-06T15:50:15;98771.09;;;29.70;42.78
44148;BME280;29810;55.848;37.368;2022-07-06T15:53:20;98781.94;;;29.77;42.87
44148;BME280;29810;55.848;37.368;2022-07-06T15:56:22;98787.34;;;29.84;43.20
44148;BME280;29810;55.848;37.368;2022-07-06T15:59:24;98791.44;;;29.80;43.16